sensor_id;sensor_type;location;lat;lon;timestamp;temperature;humidity
10644;DHT22;5370;50.132;8.626;2024-01-27T00:00:25;8.20;63.20
10644;DHT22;5370;50.132;8.626;2024-01-27T00:02:51;8.20;63.20
10644;DHT22;5370;50.132;8.626;2024-01-27T00:05:17;8.20;63.20
10644;DHT22;5370;50.132;8.626;2024-01-27T00:07:42;8.00;62.80
10644;DHT22;5370;50.132;8.626;2024-01-27T00:10:08;7.90;62.30
10644;DHT22;5370;50.132;8.626;2024-01-27T00:12:34;7.80;61.90
10644;DHT22;5370;50.132;8.626;2024-01-27T00:14:59;7.80;62.50
10644;DHT22;5370;50.132;8.626;2024-01-27T00:17:25;7.70;61.70
10644;DHT22;5370;50.132;8.626;2024-01-27T00:19:53;7.70;61.90
10644;DHT22;5370;50.132;8.626;2024-01-27T00:22:18;7.60;62.00
10644;DHT22;5370;50.132;8.626;2024-01-27T00:24:46;7.50;62.20
10644;DHT22;5370;50.132;8.626;2024-01-27T00:27:12;7.40;62.10
10644;DHT22;5370;50.132;8.626;2024-01-27T00:29:37;7.30;62.30
10644;DHT22;5370;50.132;8.626;2024-01-27T00:32:03;7.30;62.40
10644;DHT22;5370;50.132;8.626;2024-01-27T00:34:28;7.10;62.30
10644;DHT22;5370;50.132;8.626;2024-01-27T00:36:54;7.10;62.30
10644;DHT22;5370;50.132;8.626;2024-01-27T00:39:20;7.00;62.40
10644;DHT22;5370;50.132;8.626;2024-01-27T00:41:45;7.00;62.50
10644;DHT22;5370;50.132;8.626;2024-01-27T00:44:11;6.90;62.50
10644;DHT22;5370;50.132;8.626;2024-01-27T00:46:37;6.80;62.50
10644;DHT22;5370;50.132;8.626;2024-01-27T00:49:03;6.80;62.60
10644;DHT22;5370;50.132;8.626;2024-01-27T00:51:28;6.70;62.60
10644;DHT22;5370;50.132;8.626;2024-01-27T00:53:54;6.70;62.70
10644;DHT22;5370;50.132;8.626;2024-01-27T00:56:19;6.60;62.80
10644;DHT22;5370;50.132;8.626;2024-01-27T00:58:45;6.60;62.90
10644;DHT22;5370;50.132;8.626;2024-01-27T01:01:10;6.50;63.00
10644;DHT22;5370;50.132;8.626;2024-01-27T01:03:36;6.50;63.10
10644;DHT22;5370;50.132;8.626;2024-01-27T01:06:01;6.50;63.20
10644;DHT22;5370;50.132;8.626;2024-01-27T01:08:28;6.40;63.10
10644;DHT22;5370;50.132;8.626;2024-01-27T01:10:54;6.40;63.30
10644;DHT22;5370;50.132;8.626;2024-01-27T01:13:19;6.40;63.80
10644;DHT22;5370;50.132;8.626;2024-01-27T01:15:45;6.50;64.00
10644;DHT22;5370;50.132;8.626;2024-01-27T01:18:10;6.50;63.90
10644;DHT22;5370;50.132;8.626;2024-01-27T01:20:36;6.50;63.90
10644;DHT22;5370;50.132;8.626;2024-01-27T01:23:01;6.50;63.90
10644;DHT22;5370;50.132;8.626;2024-01-27T01:25:28;6.40;63.80
10644;DHT22;5370;50.132;8.626;2024-01-27T01:27:53;6.40;63.90
10644;DHT22;5370;50.132;8.626;2024-01-27T01:30:19;6.30;63.90
10644;DHT22;5370;50.132;8.626;2024-01-27T01:32:45;6.30;64.00
10644;DHT22;5370;50.132;8.626;2024-01-27T01:35:10;6.30;64.80
10644;DHT22;5370;50.132;8.626;2024-01-27T01:37:36;6.30;64.40
10644;DHT22;5370;50.132;8.626;2024-01-27T01:40:01;6.20;64.40
10644;DHT22;5370;50.132;8.626;2024-01-27T01:42:28;6.20;64.70
10644;DHT22;5370;50.132;8.626;2024-01-27T01:44:54;6.10;64.80
10644;DHT22;5370;50.132;8.626;2024-01-27T01:47:20;6.10;65.10
10644;DHT22;5370;50.132;8.626;2024-01-27T01:49:48;6.00;65.30
10644;DHT22;5370;50.132;8.626;2024-01-27T01:52:14;6.00;65.50
10644;DHT22;5370;50.132;8.626;2024-01-27T01:54:50;6.00;65.60
10644;DHT22;5370;50.132;8.626;2024-01-27T01:57:16;5.90;65.70
10644;DHT22;5370;50.132;8.626;2024-01-27T01:59:42;5.90;66.00
10644;DHT22;5370;50.132;8.626;2024-01-27T02:02:12;5.90;66.10
10644;DHT22;5370;50.132;8.626;2024-01-27T02:04:41;5.80;66.20
10644;DHT22;5370;50.132;8.626;2024-01-27T02:07:07;5.80;66.40
10644;DHT22;5370;50.132;8.626;2024-01-27T02:09:33;5.70;66.40
10644;DHT22;5370;50.132;8.626;2024-01-27T02:11:59;5.60;66.50
10644;DHT22;5370;50.132;8.626;2024-01-27T02:14:25;5.60;66.70
10644;DHT22;5370;50.132;8.626;2024-01-27T02:16:56;5.50;66.90
10644;DHT22;5370;50.132;8.626;2024-01-27T02:19:21;5.40;67.90
10644;DHT22;5370;50.132;8.626;2024-01-27T02:21:47;5.40;67.40
10644;DHT22;5370;50.132;8.626;2024-01-27T02:24:12;5.40;67.70
10644;DHT22;5370;50.132;8.626;2024-01-27T02:26:38;5.30;67.80
10644;DHT22;5370;50.132;8.626;2024-01-27T02:29:03;5.20;68.00
10644;DHT22;5370;50.132;8.626;2024-01-27T02:31:29;5.20;68.20
10644;DHT22;5370;50.132;8.626;2024-01-27T02:33:55;5.10;68.40
10644;DHT22;5370;50.132;8.626;2024-01-27T02:36:20;5.10;68.60
10644;DHT22;5370;50.132;8.626;2024-01-27T02:38:46;5.00;68.70
10644;DHT22;5370;50.132;8.626;2024-01-27T02:41:11;5.00;68.90
10644;DHT22;5370;50.132;8.626;2024-01-27T02:43:37;4.90;69.10
10644;DHT22;5370;50.132;8.626;2024-01-27T02:46:06;4.90;69.30
10644;DHT22;5370;50.132;8.626;2024-01-27T02:48:32;4.80;69.40
10644;DHT22;5370;50.132;8.626;2024-01-27T02:50:57;4.70;69.60
10644;DHT22;5370;50.132;8.626;2024-01-27T02:53:23;4.70;69.80
10644;DHT22;5370;50.132;8.626;2024-01-27T02:55:48;4.70;70.10
10644;DHT22;5370;50.132;8.626;2024-01-27T02:58:14;4.60;70.60
10644;DHT22;5370;50.132;8.626;2024-01-27T03:00:39;4.60;70.40
10644;DHT22;5370;50.132;8.626;2024-01-27T03:03:05;4.60;70.50
10644;DHT22;5370;50.132;8.626;2024-01-27T03:05:30;4.60;70.70
10644;DHT22;5370;50.132;8.626;2024-01-27T03:07:56;4.50;70.70
10644;DHT22;5370;50.132;8.626;2024-01-27T03:10:21;4.50;70.80
10644;DHT22;5370;50.132;8.626;2024-01-27T03:12:47;4.50;71.00
10644;DHT22;5370;50.132;8.626;2024-01-27T03:15:12;4.40;71.00
10644;DHT22;5370;50.132;8.626;2024-01-27T03:17:38;4.40;71.20
10644;DHT22;5370;50.132;8.626;2024-01-27T03:20:05;4.40;71.30
10644;DHT22;5370;50.132;8.626;2024-01-27T03:22:33;4.30;71.40
10644;DHT22;5370;50.132;8.626;2024-01-27T03:24:59;4.30;71.50
10644;DHT22;5370;50.132;8.626;2024-01-27T03:27:24;4.30;71.60
10644;DHT22;5370;50.132;8.626;2024-01-27T03:29:50;4.30;72.50
10644;DHT22;5370;50.132;8.626;2024-01-27T03:32:16;4.30;73.70
10644;DHT22;5370;50.132;8.626;2024-01-27T03:34:43;4.30;74.70
10644;DHT22;5370;50.132;8.626;2024-01-27T03:37:10;4.40;75.90
10644;DHT22;5370;50.132;8.626;2024-01-27T03:39:36;4.40;76.70
10644;DHT22;5370;50.132;8.626;2024-01-27T03:42:02;4.50;77.50
10644;DHT22;5370;50.132;8.626;2024-01-27T03:44:27;4.50;77.70
10644;DHT22;5370;50.132;8.626;2024-01-27T03:46:53;4.60;77.90
10644;DHT22;5370;50.132;8.626;2024-01-27T03:49:18;4.60;77.80
10644;DHT22;5370;50.132;8.626;2024-01-27T03:51:44;4.60;77.70
10644;DHT22;5370;50.132;8.626;2024-01-27T03:54:09;4.70;77.80
10644;DHT22;5370;50.132;8.626;2024-01-27T03:56:35;4.70;77.70
10644;DHT22;5370;50.132;8.626;2024-01-27T03:59:00;4.70;77.60
10644;DHT22;5370;50.132;8.626;2024-01-27T04:01:26;4.70;77.40
10644;DHT22;5370;50.132;8.626;2024-01-27T04:03:51;4.70;77.30
10644;DHT22;5370;50.132;8.626;2024-01-27T04:06:17;4.60;77.00
10644;DHT22;5370;50.132;8.626;2024-01-27T04:08:42;4.60;76.80
10644;DHT22;5370;50.132;8.626;2024-01-27T04:11:19;4.60;76.60
10644;DHT22;5370;50.132;8.626;2024-01-27T04:13:45;4.50;76.30
10644;DHT22;5370;50.132;8.626;2024-01-27T04:16:11;4.50;76.30
10644;DHT22;5370;50.132;8.626;2024-01-27T04:18:38;4.40;76.10
10644;DHT22;5370;50.132;8.626;2024-01-27T04:21:04;4.40;76.10
10644;DHT22;5370;50.132;8.626;2024-01-27T04:23:30;4.30;76.00
10644;DHT22;5370;50.132;8.626;2024-01-27T04:25:55;4.30;75.80
10644;DHT22;5370;50.132;8.626;2024-01-27T04:28:21;4.30;75.90
10644;DHT22;5370;50.132;8.626;2024-01-27T04:30:46;4.20;75.80
10644;DHT22;5370;50.132;8.626;2024-01-27T04:33:12;4.20;75.80
10644;DHT22;5370;50.132;8.626;2024-01-27T04:35:38;4.10;75.60
10644;DHT22;5370;50.132;8.626;2024-01-27T04:38:03;4.10;75.60
10644;DHT22;5370;50.132;8.626;2024-01-27T04:40:29;4.10;75.70
10644;DHT22;5370;50.132;8.626;2024-01-27T04:42:55;4.00;75.70
10644;DHT22;5370;50.132;8.626;2024-01-27T04:45:21;4.00;75.80
10644;DHT22;5370;50.132;8.626;2024-01-27T04:47:46;4.00;75.80
10644;DHT22;5370;50.132;8.626;2024-01-27T04:50:12;4.00;75.90
10644;DHT22;5370;50.132;8.626;2024-01-27T04:52:37;3.90;76.00
10644;DHT22;5370;50.132;8.626;2024-01-27T04:55:03;3.90;76.10
10644;DHT22;5370;50.132;8.626;2024-01-27T04:57:29;3.90;76.40
10644;DHT22;5370;50.132;8.626;2024-01-27T04:59:55;3.80;76.70
10644;DHT22;5370;50.132;8.626;2024-01-27T05:02:21;3.80;77.30
10644;DHT22;5370;50.132;8.626;2024-01-27T05:04:46;3.90;77.60
10644;DHT22;5370;50.132;8.626;2024-01-27T05:07:12;3.90;77.70
10644;DHT22;5370;50.132;8.626;2024-01-27T05:09:37;3.90;77.60
10644;DHT22;5370;50.132;8.626;2024-01-27T05:12:03;3.90;77.70
10644;DHT22;5370;50.132;8.626;2024-01-27T05:14:29;4.00;78.60
10644;DHT22;5370;50.132;8.626;2024-01-27T05:16:54;4.00;77.70
10644;DHT22;5370;50.132;8.626;2024-01-27T05:19:21;4.00;77.50
10644;DHT22;5370;50.132;8.626;2024-01-27T05:21:46;4.00;77.20
10644;DHT22;5370;50.132;8.626;2024-01-27T05:24:12;3.90;76.90
10644;DHT22;5370;50.132;8.626;2024-01-27T05:26:37;3.90;76.80
10644;DHT22;5370;50.132;8.626;2024-01-27T05:29:03;3.80;76.70
10644;DHT22;5370;50.132;8.626;2024-01-27T05:31:28;3.80;76.70
10644;DHT22;5370;50.132;8.626;2024-01-27T05:33:54;3.80;76.80
10644;DHT22;5370;50.132;8.626;2024-01-27T05:36:20;3.70;77.00
10644;DHT22;5370;50.132;8.626;2024-01-27T05:38:45;3.70;77.60
10644;DHT22;5370;50.132;8.626;2024-01-27T05:41:11;3.70;77.80
10644;DHT22;5370;50.132;8.626;2024-01-27T05:43:37;3.70;77.80
10644;DHT22;5370;50.132;8.626;2024-01-27T05:46:02;3.60;77.80
10644;DHT22;5370;50.132;8.626;2024-01-27T05:48:28;3.70;78.10
10644;DHT22;5370;50.132;8.626;2024-01-27T05:50:58;3.60;78.10
10644;DHT22;5370;50.132;8.626;2024-01-27T05:53:24;3.60;78.40
10644;DHT22;5370;50.132;8.626;2024-01-27T05:55:49;3.60;78.50
10644;DHT22;5370;50.132;8.626;2024-01-27T05:58:15;3.60;78.70
10644;DHT22;5370;50.132;8.626;2024-01-27T06:00:43;3.70;79.00
10644;DHT22;5370;50.132;8.626;2024-01-27T06:03:09;3.70;79.00
10644;DHT22;5370;50.132;8.626;2024-01-27T06:05:35;3.70;78.90
10644;DHT22;5370;50.132;8.626;2024-01-27T06:08:01;3.70;78.70
10644;DHT22;5370;50.132;8.626;2024-01-27T06:10:26;3.70;78.60
10644;DHT22;5370;50.132;8.626;2024-01-27T06:12:52;3.60;78.40
10644;DHT22;5370;50.132;8.626;2024-01-27T06:15:17;3.60;78.40
10644;DHT22;5370;50.132;8.626;2024-01-27T06:17:43;3.50;78.50
10644;DHT22;5370;50.132;8.626;2024-01-27T06:20:09;3.50;78.80
10644;DHT22;5370;50.132;8.626;2024-01-27T06:22:34;3.50;79.10
10644;DHT22;5370;50.132;8.626;2024-01-27T06:25:00;3.50;79.30
10644;DHT22;5370;50.132;8.626;2024-01-27T06:27:25;3.50;79.20
10644;DHT22;5370;50.132;8.626;2024-01-27T06:29:51;3.50;79.20
10644;DHT22;5370;50.132;8.626;2024-01-27T06:32:16;3.40;79.00
10644;DHT22;5370;50.132;8.626;2024-01-27T06:34:42;3.40;78.90
10644;DHT22;5370;50.132;8.626;2024-01-27T06:37:07;3.40;78.80
10644;DHT22;5370;50.132;8.626;2024-01-27T06:39:33;3.30;78.60
10644;DHT22;5370;50.132;8.626;2024-01-27T06:41:58;3.30;78.60
10644;DHT22;5370;50.132;8.626;2024-01-27T06:44:24;3.30;78.70
10644;DHT22;5370;50.132;8.626;2024-01-27T06:46:50;3.20;78.70
10644;DHT22;5370;50.132;8.626;2024-01-27T06:49:16;3.10;78.60
10644;DHT22;5370;50.132;8.626;2024-01-27T06:51:45;3.10;79.50
10644;DHT22;5370;50.132;8.626;2024-01-27T06:54:10;3.10;79.00
10644;DHT22;5370;50.132;8.626;2024-01-27T06:56:36;3.00;79.00
10644;DHT22;5370;50.132;8.626;2024-01-27T06:59:02;3.00;79.20
10644;DHT22;5370;50.132;8.626;2024-01-27T07:01:27;2.90;79.20
10644;DHT22;5370;50.132;8.626;2024-01-27T07:03:53;2.90;79.40
10644;DHT22;5370;50.132;8.626;2024-01-27T07:06:19;2.80;79.40
10644;DHT22;5370;50.132;8.626;2024-01-27T07:08:44;2.80;79.70
10644;DHT22;5370;50.132;8.626;2024-01-27T07:11:10;2.80;79.90
10644;DHT22;5370;50.132;8.626;2024-01-27T07:13:35;2.80;80.00
10644;DHT22;5370;50.132;8.626;2024-01-27T07:16:01;2.80;80.10
10644;DHT22;5370;50.132;8.626;2024-01-27T07:18:26;2.80;80.30
10644;DHT22;5370;50.132;8.626;2024-01-27T07:20:52;2.80;80.50
10644;DHT22;5370;50.132;8.626;2024-01-27T07:23:18;2.70;80.40
10644;DHT22;5370;50.132;8.626;2024-01-27T07:25:43;2.70;80.60
10644;DHT22;5370;50.132;8.626;2024-01-27T07:28:09;2.70;80.90
10644;DHT22;5370;50.132;8.626;2024-01-27T07:30:36;2.70;81.00
10644;DHT22;5370;50.132;8.626;2024-01-27T07:33:02;2.70;81.00
10644;DHT22;5370;50.132;8.626;2024-01-27T07:35:28;2.70;81.20
10644;DHT22;5370;50.132;8.626;2024-01-27T07:37:54;2.80;81.40
10644;DHT22;5370;50.132;8.626;2024-01-27T07:40:19;2.80;81.50
10644;DHT22;5370;50.132;8.626;2024-01-27T07:42:45;2.80;81.60
10644;DHT22;5370;50.132;8.626;2024-01-27T07:45:11;2.80;81.70
10644;DHT22;5370;50.132;8.626;2024-01-27T07:47:36;2.90;81.90
10644;DHT22;5370;50.132;8.626;2024-01-27T07:50:02;2.90;81.90
10644;DHT22;5370;50.132;8.626;2024-01-27T07:52:28;2.90;82.00
10644;DHT22;5370;50.132;8.626;2024-01-27T07:54:53;2.90;82.10
10644;DHT22;5370;50.132;8.626;2024-01-27T07:57:20;2.90;82.10
10644;DHT22;5370;50.132;8.626;2024-01-27T07:59:46;3.00;82.30
10644;DHT22;5370;50.132;8.626;2024-01-27T08:02:11;3.00;82.30
10644;DHT22;5370;50.132;8.626;2024-01-27T08:04:38;3.00;82.40
10644;DHT22;5370;50.132;8.626;2024-01-27T08:07:04;3.10;82.60
10644;DHT22;5370;50.132;8.626;2024-01-27T08:09:31;3.10;82.70
10644;DHT22;5370;50.132;8.626;2024-01-27T08:11:56;3.20;82.80
10644;DHT22;5370;50.132;8.626;2024-01-27T08:14:22;3.30;83.00
10644;DHT22;5370;50.132;8.626;2024-01-27T08:16:48;3.40;83.00
10644;DHT22;5370;50.132;8.626;2024-01-27T08:19:13;3.50;83.00
10644;DHT22;5370;50.132;8.626;2024-01-27T08:21:45;3.60;83.10
10644;DHT22;5370;50.132;8.626;2024-01-27T08:24:11;3.80;83.60
10644;DHT22;5370;50.132;8.626;2024-01-27T08:26:36;4.10;83.90
10644;DHT22;5370;50.132;8.626;2024-01-27T08:29:02;4.40;83.90
10644;DHT22;5370;50.132;8.626;2024-01-27T08:31:27;4.60;83.40
10644;DHT22;5370;50.132;8.626;2024-01-27T08:33:53;4.80;82.80
10644;DHT22;5370;50.132;8.626;2024-01-27T08:36:18;5.00;82.10
10644;DHT22;5370;50.132;8.626;2024-01-27T08:38:44;5.10;81.40
10644;DHT22;5370;50.132;8.626;2024-01-27T08:41:10;5.20;81.10
10644;DHT22;5370;50.132;8.626;2024-01-27T08:43:35;5.20;80.80
10644;DHT22;5370;50.132;8.626;2024-01-27T08:46:01;5.40;80.80
10644;DHT22;5370;50.132;8.626;2024-01-27T08:48:26;5.50;80.30
10644;DHT22;5370;50.132;8.626;2024-01-27T08:50:52;5.50;79.90
10644;DHT22;5370;50.132;8.626;2024-01-27T08:53:17;5.60;79.50
10644;DHT22;5370;50.132;8.626;2024-01-27T08:55:43;5.60;79.10
10644;DHT22;5370;50.132;8.626;2024-01-27T08:58:08;5.50;78.90
10644;DHT22;5370;50.132;8.626;2024-01-27T09:00:34;5.50;78.80
10644;DHT22;5370;50.132;8.626;2024-01-27T09:03:00;5.50;78.70
10644;DHT22;5370;50.132;8.626;2024-01-27T09:05:26;5.40;78.50
10644;DHT22;5370;50.132;8.626;2024-01-27T09:07:53;5.40;78.30
10644;DHT22;5370;50.132;8.626;2024-01-27T09:10:18;5.40;78.30
10644;DHT22;5370;50.132;8.626;2024-01-27T09:12:44;5.40;78.30
10644;DHT22;5370;50.132;8.626;2024-01-27T09:15:10;5.40;78.30
10644;DHT22;5370;50.132;8.626;2024-01-27T09:17:35;5.40;78.20
10644;DHT22;5370;50.132;8.626;2024-01-27T09:20:01;5.40;78.10
10644;DHT22;5370;50.132;8.626;2024-01-27T09:22:27;5.40;77.90
10644;DHT22;5370;50.132;8.626;2024-01-27T09:24:52;5.40;77.80
10644;DHT22;5370;50.132;8.626;2024-01-27T09:27:18;5.40;77.70
10644;DHT22;5370;50.132;8.626;2024-01-27T09:29:44;5.40;77.60
10644;DHT22;5370;50.132;8.626;2024-01-27T09:32:09;5.50;77.50
10644;DHT22;5370;50.132;8.626;2024-01-27T09:34:35;5.50;77.30
10644;DHT22;5370;50.132;8.626;2024-01-27T09:37:01;5.50;77.30
10644;DHT22;5370;50.132;8.626;2024-01-27T09:39:27;5.60;77.40
10644;DHT22;5370;50.132;8.626;2024-01-27T09:41:53;5.60;77.30
10644;DHT22;5370;50.132;8.626;2024-01-27T09:44:19;5.60;77.20
10644;DHT22;5370;50.132;8.626;2024-01-27T09:46:46;5.70;77.20
10644;DHT22;5370;50.132;8.626;2024-01-27T09:49:14;5.80;77.20
10644;DHT22;5370;50.132;8.626;2024-01-27T09:51:41;5.90;77.10
10644;DHT22;5370;50.132;8.626;2024-01-27T09:54:07;5.90;76.80
10644;DHT22;5370;50.132;8.626;2024-01-27T09:56:33;5.90;76.70
10644;DHT22;5370;50.132;8.626;2024-01-27T09:58:59;6.00;76.50
10644;DHT22;5370;50.132;8.626;2024-01-27T10:01:27;6.00;76.40
10644;DHT22;5370;50.132;8.626;2024-01-27T10:03:54;6.10;76.40
10644;DHT22;5370;50.132;8.626;2024-01-27T10:06:20;6.10;76.30
10644;DHT22;5370;50.132;8.626;2024-01-27T10:08:54;6.20;76.30
10644;DHT22;5370;50.132;8.626;2024-01-27T10:11:21;6.30;76.30
10644;DHT22;5370;50.132;8.626;2024-01-27T10:13:57;6.30;76.10
10644;DHT22;5370;50.132;8.626;2024-01-27T10:16:23;6.40;76.00
10644;DHT22;5370;50.132;8.626;2024-01-27T10:19:01;6.50;75.90
10644;DHT22;5370;50.132;8.626;2024-01-27T10:21:27;6.50;75.80
10644;DHT22;5370;50.132;8.626;2024-01-27T10:23:52;6.60;75.80
10644;DHT22;5370;50.132;8.626;2024-01-27T10:26:18;6.60;75.60
10644;DHT22;5370;50.132;8.626;2024-01-27T10:28:55;6.70;75.60
10644;DHT22;5370;50.132;8.626;2024-01-27T10:31:29;6.80;75.50
10644;DHT22;5370;50.132;8.626;2024-01-27T10:33:56;6.90;75.50
10644;DHT22;5370;50.132;8.626;2024-01-27T10:36:22;7.00;75.40
10644;DHT22;5370;50.132;8.626;2024-01-27T10:38:48;7.00;75.20
10644;DHT22;5370;50.132;8.626;2024-01-27T10:41:21;7.10;75.10
10644;DHT22;5370;50.132;8.626;2024-01-27T10:43:50;7.20;75.00
10644;DHT22;5370;50.132;8.626;2024-01-27T10:46:21;7.30;74.70
10644;DHT22;5370;50.132;8.626;2024-01-27T10:48:52;7.30;74.40
10644;DHT22;5370;50.132;8.626;2024-01-27T10:51:36;7.40;74.20
10644;DHT22;5370;50.132;8.626;2024-01-27T10:54:03;7.50;73.80
10644;DHT22;5370;50.132;8.626;2024-01-27T10:56:32;7.60;73.60
10644;DHT22;5370;50.132;8.626;2024-01-27T10:58:59;7.70;73.40
10644;DHT22;5370;50.132;8.626;2024-01-27T11:01:26;7.80;73.30
10644;DHT22;5370;50.132;8.626;2024-01-27T11:03:55;7.80;73.10
10644;DHT22;5370;50.132;8.626;2024-01-27T11:06:22;7.90;72.70
10644;DHT22;5370;50.132;8.626;2024-01-27T11:08:49;8.10;72.50
10644;DHT22;5370;50.132;8.626;2024-01-27T11:11:16;8.10;72.10
10644;DHT22;5370;50.132;8.626;2024-01-27T11:13:42;8.10;71.70
10644;DHT22;5370;50.132;8.626;2024-01-27T11:16:18;8.20;71.40
10644;DHT22;5370;50.132;8.626;2024-01-27T11:18:44;8.30;71.00
10644;DHT22;5370;50.132;8.626;2024-01-27T11:21:14;8.40;70.90
10644;DHT22;5370;50.132;8.626;2024-01-27T11:23:41;8.40;70.60
10644;DHT22;5370;50.132;8.626;2024-01-27T11:26:08;8.50;70.30
10644;DHT22;5370;50.132;8.626;2024-01-27T11:28:33;8.60;70.10
10644;DHT22;5370;50.132;8.626;2024-01-27T11:31:03;8.70;70.20
10644;DHT22;5370;50.132;8.626;2024-01-27T11:33:29;8.80;70.20
10644;DHT22;5370;50.132;8.626;2024-01-27T11:36:05;8.90;70.50
10644;DHT22;5370;50.132;8.626;2024-01-27T11:38:31;9.00;70.10
10644;DHT22;5370;50.132;8.626;2024-01-27T11:40:59;9.10;70.40
10644;DHT22;5370;50.132;8.626;2024-01-27T11:43:25;9.20;69.10
10644;DHT22;5370;50.132;8.626;2024-01-27T11:46:01;9.30;68.30
10644;DHT22;5370;50.132;8.626;2024-01-27T11:48:27;9.40;67.80
10644;DHT22;5370;50.132;8.626;2024-01-27T11:51:06;9.40;67.30
10644;DHT22;5370;50.132;8.626;2024-01-27T11:53:33;9.50;66.70
10644;DHT22;5370;50.132;8.626;2024-01-27T11:55:59;9.60;66.60
10644;DHT22;5370;50.132;8.626;2024-01-27T11:58:26;9.60;66.30
10644;DHT22;5370;50.132;8.626;2024-01-27T12:00:52;9.70;66.10
10644;DHT22;5370;50.132;8.626;2024-01-27T12:03:17;9.80;65.80
10644;DHT22;5370;50.132;8.626;2024-01-27T12:05:43;9.80;65.30
10644;DHT22;5370;50.132;8.626;2024-01-27T12:08:10;9.90;64.70
10644;DHT22;5370;50.132;8.626;2024-01-27T12:10:36;9.90;64.20
10644;DHT22;5370;50.132;8.626;2024-01-27T12:13:01;10.00;62.60
10644;DHT22;5370;50.132;8.626;2024-01-27T12:15:27;10.00;62.60
10644;DHT22;5370;50.132;8.626;2024-01-27T12:17:53;10.00;62.20
10644;DHT22;5370;50.132;8.626;2024-01-27T12:20:18;10.10;62.00
10644;DHT22;5370;50.132;8.626;2024-01-27T12:22:44;10.10;61.50
10644;DHT22;5370;50.132;8.626;2024-01-27T12:25:11;10.20;61.20
10644;DHT22;5370;50.132;8.626;2024-01-27T12:27:40;10.20;60.90
10644;DHT22;5370;50.132;8.626;2024-01-27T12:30:06;10.20;60.70
10644;DHT22;5370;50.132;8.626;2024-01-27T12:32:32;10.30;60.20
10644;DHT22;5370;50.132;8.626;2024-01-27T12:34:58;10.40;61.50
10644;DHT22;5370;50.132;8.626;2024-01-27T12:37:26;10.60;60.70
10644;DHT22;5370;50.132;8.626;2024-01-27T12:39:53;10.60;59.80
10644;DHT22;5370;50.132;8.626;2024-01-27T12:42:18;10.60;59.40
10644;DHT22;5370;50.132;8.626;2024-01-27T12:44:44;10.60;58.90
10644;DHT22;5370;50.132;8.626;2024-01-27T12:47:10;10.60;58.00
10644;DHT22;5370;50.132;8.626;2024-01-27T12:49:36;10.60;58.00
10644;DHT22;5370;50.132;8.626;2024-01-27T12:52:02;10.60;58.00
10644;DHT22;5370;50.132;8.626;2024-01-27T12:54:27;10.60;57.90
10644;DHT22;5370;50.132;8.626;2024-01-27T12:56:53;10.60;57.70
10644;DHT22;5370;50.132;8.626;2024-01-27T12:59:18;10.70;57.50
10644;DHT22;5370;50.132;8.626;2024-01-27T13:01:44;10.70;57.10
10644;DHT22;5370;50.132;8.626;2024-01-27T13:04:10;10.70;57.00
10644;DHT22;5370;50.132;8.626;2024-01-27T13:06:35;10.70;57.20
10644;DHT22;5370;50.132;8.626;2024-01-27T13:09:02;10.80;57.60
10644;DHT22;5370;50.132;8.626;2024-01-27T13:11:27;10.80;57.50
10644;DHT22;5370;50.132;8.626;2024-01-27T13:13:53;10.90;57.30
10644;DHT22;5370;50.132;8.626;2024-01-27T13:16:19;10.90;57.20
10644;DHT22;5370;50.132;8.626;2024-01-27T13:18:45;11.00;57.40
10644;DHT22;5370;50.132;8.626;2024-01-27T13:21:11;11.00;57.20
10644;DHT22;5370;50.132;8.626;2024-01-27T13:23:37;11.00;57.00
10644;DHT22;5370;50.132;8.626;2024-01-27T13:26:03;11.10;56.70
10644;DHT22;5370;50.132;8.626;2024-01-27T13:28:28;11.10;56.30
10644;DHT22;5370;50.132;8.626;2024-01-27T13:30:54;11.10;56.10
10644;DHT22;5370;50.132;8.626;2024-01-27T13:33:19;11.10;56.00
10644;DHT22;5370;50.132;8.626;2024-01-27T13:35:45;11.10;55.60
10644;DHT22;5370;50.132;8.626;2024-01-27T13:38:13;11.10;55.40
10644;DHT22;5370;50.132;8.626;2024-01-27T13:40:41;11.10;55.10
10644;DHT22;5370;50.132;8.626;2024-01-27T13:43:07;11.10;54.90
10644;DHT22;5370;50.132;8.626;2024-01-27T13:45:32;11.10;54.90
10644;DHT22;5370;50.132;8.626;2024-01-27T13:47:58;11.10;54.80
10644;DHT22;5370;50.132;8.626;2024-01-27T13:50:24;11.10;54.50
10644;DHT22;5370;50.132;8.626;2024-01-27T13:52:53;11.10;54.40
10644;DHT22;5370;50.132;8.626;2024-01-27T13:55:18;11.00;54.00
10644;DHT22;5370;50.132;8.626;2024-01-27T13:57:44;11.00;54.00
10644;DHT22;5370;50.132;8.626;2024-01-27T14:00:10;11.00;53.80
10644;DHT22;5370;50.132;8.626;2024-01-27T14:02:36;11.00;53.80
10644;DHT22;5370;50.132;8.626;2024-01-27T14:05:02;11.00;53.70
10644;DHT22;5370;50.132;8.626;2024-01-27T14:07:27;11.00;53.70
10644;DHT22;5370;50.132;8.626;2024-01-27T14:09:53;10.90;53.60
10644;DHT22;5370;50.132;8.626;2024-01-27T14:12:18;10.90;53.40
10644;DHT22;5370;50.132;8.626;2024-01-27T14:14:44;10.80;53.30
10644;DHT22;5370;50.132;8.626;2024-01-27T14:17:09;10.80;53.40
10644;DHT22;5370;50.132;8.626;2024-01-27T14:19:35;10.80;53.30
10644;DHT22;5370;50.132;8.626;2024-01-27T14:22:02;10.80;53.30
10644;DHT22;5370;50.132;8.626;2024-01-27T14:24:28;10.80;53.40
10644;DHT22;5370;50.132;8.626;2024-01-27T14:26:53;10.70;53.20
10644;DHT22;5370;50.132;8.626;2024-01-27T14:29:19;10.70;52.80
10644;DHT22;5370;50.132;8.626;2024-01-27T14:31:44;10.70;52.50
10644;DHT22;5370;50.132;8.626;2024-01-27T14:34:10;10.60;52.40
10644;DHT22;5370;50.132;8.626;2024-01-27T14:36:36;10.50;52.40
10644;DHT22;5370;50.132;8.626;2024-01-27T14:39:01;10.50;52.50
10644;DHT22;5370;50.132;8.626;2024-01-27T14:41:27;10.40;52.60
10644;DHT22;5370;50.132;8.626;2024-01-27T14:43:53;10.30;52.70
10644;DHT22;5370;50.132;8.626;2024-01-27T14:46:19;10.20;53.40
10644;DHT22;5370;50.132;8.626;2024-01-27T14:48:45;10.10;53.40
10644;DHT22;5370;50.132;8.626;2024-01-27T14:51:11;10.00;53.70
10644;DHT22;5370;50.132;8.626;2024-01-27T14:53:38;10.00;53.70
10644;DHT22;5370;50.132;8.626;2024-01-27T14:56:04;9.90;54.80
10644;DHT22;5370;50.132;8.626;2024-01-27T14:58:29;9.90;55.20
10644;DHT22;5370;50.132;8.626;2024-01-27T15:00:55;9.80;55.20
10644;DHT22;5370;50.132;8.626;2024-01-27T15:03:22;9.80;55.00
10644;DHT22;5370;50.132;8.626;2024-01-27T15:05:51;9.80;55.60
10644;DHT22;5370;50.132;8.626;2024-01-27T15:08:18;9.70;55.90
10644;DHT22;5370;50.132;8.626;2024-01-27T15:10:44;9.70;56.10
10644;DHT22;5370;50.132;8.626;2024-01-27T15:13:10;9.70;55.90
10644;DHT22;5370;50.132;8.626;2024-01-27T15:15:37;9.60;55.40
10644;DHT22;5370;50.132;8.626;2024-01-27T15:18:03;9.60;55.00
10644;DHT22;5370;50.132;8.626;2024-01-27T15:20:29;9.50;54.60
10644;DHT22;5370;50.132;8.626;2024-01-27T15:22:55;9.50;54.60
10644;DHT22;5370;50.132;8.626;2024-01-27T15:25:21;9.40;54.60
10644;DHT22;5370;50.132;8.626;2024-01-27T15:27:47;9.30;54.70
10644;DHT22;5370;50.132;8.626;2024-01-27T15:30:13;9.20;54.90
10644;DHT22;5370;50.132;8.626;2024-01-27T15:32:39;9.10;55.00
10644;DHT22;5370;50.132;8.626;2024-01-27T15:35:05;9.00;55.10
10644;DHT22;5370;50.132;8.626;2024-01-27T15:37:31;8.90;55.30
10644;DHT22;5370;50.132;8.626;2024-01-27T15:39:57;8.80;55.40
10644;DHT22;5370;50.132;8.626;2024-01-27T15:42:22;8.70;55.50
10644;DHT22;5370;50.132;8.626;2024-01-27T15:44:48;8.60;55.60
10644;DHT22;5370;50.132;8.626;2024-01-27T15:47:13;8.50;55.80
10644;DHT22;5370;50.132;8.626;2024-01-27T15:49:39;8.40;56.10
10644;DHT22;5370;50.132;8.626;2024-01-27T15:52:06;8.30;56.40